<?xml version="1.0" encoding="UTF-8" standalone="no" ?><gpx xmlns="http://www.topografix.com/GPX/1/1" xmlns:gpxx="http://www.garmin.com/xmlschemas/GpxExtensions/v3" xmlns:wptx1="http://www.garmin.com/xmlschemas/WaypointExtension/v1" xmlns:gpxtpx="http://www.garmin.com/xmlschemas/TrackPointExtension/v1" creator="GuideVTT.com" version="1.1" xmlns:xsi="http://www.w3.org/2001/XMLSchema-instance" xsi:schemaLocation="http://www.topografix.com/GPX/1/1 http://www.topografix.com/GPX/1/1/gpx.xsd http://www.garmin.com/xmlschemas/GpxExtensions/v3 http://www8.garmin.com/xmlschemas/GpxExtensionsv3.xsd http://www.garmin.com/xmlschemas/WaypointExtension/v1 http://www8.garmin.com/xmlschemas/WaypointExtensionv1.xsd http://www.garmin.com/xmlschemas/TrackPointExtension/v1 http://www.garmin.com/xmlschemas/TrackPointExtensionv1.xsd">
<metadata><link href="http://www.garmin.com"><text>Garmin International</text></link><time>2013-06-22T15:13:50Z</time></metadata>
<trk><name>baronnies.gpx</name><extensions><gpxx:TrackExtension><gpxx:DisplayColor>Cyan</gpxx:DisplayColor></gpxx:TrackExtension></extensions><trkseg>
<trkpt lat="43.12553605" lon="0.38327510"><ele></ele><time>2014-6-2T1:12:5Z</time></trkpt>
<trkpt lat="43.09235587" lon="0.28336558"><ele></ele><time>2014-6-2T1:12:8Z</time></trkpt>
<trkpt lat="" lon=""><ele></ele><time>2014-6-2T1:12:11Z</time></trkpt>
<trkpt lat="43.08508717" lon="0.28235841"><ele></ele><time>2014-6-2T1:12:14Z</time></trkpt>
<trkpt lat="43.08505967" lon="0.28235715"><ele></ele><time>2014-6-2T1:12:17Z</time></trkpt>
<trkpt lat="43.08508180" lon="0.28237215"><ele></ele><time>2014-6-2T1:12:20Z</time></trkpt>
<trkpt lat="43.08325916" lon="0.28726903"><ele></ele><time>2014-6-2T1:12:23Z</time></trkpt>
<trkpt lat="43.08268005" lon="0.28791117"><ele></ele><time>2014-6-2T1:12:26Z</time></trkpt>
<trkpt lat="43.08249573" lon="0.28812842"><ele></ele><time>2014-6-2T1:12:29Z</time></trkpt>
<trkpt lat="43.08095321" lon="0.28944279"><ele></ele><time>2014-6-2T1:12:32Z</time></trkpt>
<trkpt lat="43.07999885" lon="0.28985451"><ele></ele><time>2014-6-2T1:12:35Z</time></trkpt>
<trkpt lat="43.07928186" lon="0.29016791"><ele></ele><time>2014-6-2T1:12:38Z</time></trkpt>
<trkpt lat="43.07833353" lon="0.29024251"><ele></ele><time>2014-6-2T1:12:41Z</time></trkpt>
<trkpt lat="43.07797780" lon="0.29022206"><ele></ele><time>2014-6-2T1:12:44Z</time></trkpt>
<trkpt lat="43.07688070" lon="0.28985216"><ele></ele><time>2014-6-2T1:12:47Z</time></trkpt>
<trkpt lat="43.07675622" lon="0.28981696"><ele></ele><time>2014-6-2T1:12:50Z</time></trkpt>
<trkpt lat="43.07668406" lon="0.28985778"><ele></ele><time>2014-6-2T1:12:53Z</time></trkpt>
<trkpt lat="43.07664081" lon="0.29023605"><ele></ele><time>2014-6-2T1:12:56Z</time></trkpt>
<trkpt lat="43.07687961" lon="0.29110786"><ele></ele><time>2014-6-2T1:12:59Z</time></trkpt>
<trkpt lat="43.07690023" lon="0.29152016"><ele></ele><time>2014-6-2T1:13:2Z</time></trkpt>
<trkpt lat="43.07676008" lon="0.29181420"><ele></ele><time>2014-6-2T1:13:5Z</time></trkpt>
<trkpt lat="43.07650083" lon="0.29213539"><ele></ele><time>2014-6-2T1:13:8Z</time></trkpt>
<trkpt lat="43.07581058" lon="0.29290552"><ele></ele><time>2014-6-2T1:13:11Z</time></trkpt>
<trkpt lat="43.07513525" lon="0.29344272"><ele></ele><time>2014-6-2T1:13:14Z</time></trkpt>
<trkpt lat="43.07428407" lon="0.29367766"><ele></ele><time>2014-6-2T1:13:17Z</time></trkpt>
<trkpt lat="43.07362860" lon="0.29357339"><ele></ele><time>2014-6-2T1:13:20Z</time></trkpt>
<trkpt lat="43.07291396" lon="0.29325337"><ele></ele><time>2014-6-2T1:13:23Z</time></trkpt>
<trkpt lat="43.07182280" lon="0.29274534"><ele></ele><time>2014-6-2T1:13:26Z</time></trkpt>
<trkpt lat="43.06988189" lon="0.29299789"><ele></ele><time>2014-6-2T1:13:29Z</time></trkpt>
<trkpt lat="43.06918452" lon="0.29308020"><ele></ele><time>2014-6-2T1:13:32Z</time></trkpt>
<trkpt lat="43.06857624" lon="0.29292614"><ele></ele><time>2014-6-2T1:13:35Z</time></trkpt>
<trkpt lat="43.06819495" lon="0.29298398"><ele></ele><time>2014-6-2T1:13:38Z</time></trkpt>
<trkpt lat="43.06806562" lon="0.29302488"><ele></ele><time>2014-6-2T1:13:41Z</time></trkpt>
<trkpt lat="43.06807718" lon="0.29306939"><ele></ele><time>2014-6-2T1:13:44Z</time></trkpt>
<trkpt lat="43.06809034" lon="0.29307140"><ele></ele><time>2014-6-2T1:13:47Z</time></trkpt>
<trkpt lat="43.06804944" lon="0.29287216"><ele></ele><time>2014-6-2T1:13:50Z</time></trkpt>
<trkpt lat="43.06798590" lon="0.29188209"><ele></ele><time>2014-6-2T1:13:53Z</time></trkpt>
<trkpt lat="43.06883340" lon="0.29225928"><ele></ele><time>2014-6-2T1:13:56Z</time></trkpt>
<trkpt lat="43.06875771" lon="0.29262808"><ele></ele><time>2014-6-2T1:13:59Z</time></trkpt>
<trkpt lat="43.06900171" lon="0.29254057"><ele></ele><time>2014-6-2T1:14:2Z</time></trkpt>
<trkpt lat="43.06965399" lon="0.29269229"><ele></ele><time>2014-6-2T1:14:5Z</time></trkpt>
<trkpt lat="43.07212011" lon="0.29193607"><ele></ele><time>2014-6-2T1:14:8Z</time></trkpt>
<trkpt lat="43.07276895" lon="0.29202551"><ele></ele><time>2014-6-2T1:14:11Z</time></trkpt>
<trkpt lat="43.07559097" lon="0.29118438"><ele></ele><time>2014-6-2T1:14:14Z</time></trkpt>
<trkpt lat="43.07549768" lon="0.29042833"><ele></ele><time>2014-6-2T1:14:17Z</time></trkpt>
<trkpt lat="43.07552643" lon="0.28938948"><ele></ele><time>2014-6-2T1:14:20Z</time></trkpt>
<trkpt lat="43.07565241" lon="0.28917449"><ele></ele><time>2014-6-2T1:14:23Z</time></trkpt>
<trkpt lat="43.07639346" lon="0.28899042"><ele></ele><time>2014-6-2T1:14:26Z</time></trkpt>
<trkpt lat="43.07883309" lon="0.28887701"><ele></ele><time>2014-6-2T1:14:29Z</time></trkpt>
<trkpt lat="43.07933257" lon="0.28867677"><ele></ele><time>2014-6-2T1:14:32Z</time></trkpt>
<trkpt lat="43.07995861" lon="0.28833940"><ele></ele><time>2014-6-2T1:14:35Z</time></trkpt>
<trkpt lat="43.08013606" lon="0.28802248"><ele></ele><time>2014-6-2T1:14:38Z</time></trkpt>
<trkpt lat="43.08181713" lon="0.28658967"><ele></ele><time>2014-6-2T1:14:41Z</time></trkpt>
<trkpt lat="43.08224712" lon="0.28580236"><ele></ele><time>2014-6-2T1:14:44Z</time></trkpt>
<trkpt lat="43.08388461" lon="0.28200871"><ele></ele><time>2014-6-2T1:14:47Z</time></trkpt>
<trkpt lat="43.08431611" lon="0.28196680"><ele></ele><time>2014-6-2T1:14:50Z</time></trkpt>
<trkpt lat="43.08439574" lon="0.28201483"><ele></ele><time>2014-6-2T1:14:53Z</time></trkpt>
<trkpt lat="43.08520309" lon="0.28258866"><ele></ele><time>2014-6-2T1:14:56Z</time></trkpt>
<trkpt lat="43.08547156" lon="0.28288605"><ele></ele><time>2014-6-2T1:14:59Z</time></trkpt>
<trkpt lat="43.08593022" lon="0.28304656"><ele></ele><time>2014-6-2T1:15:2Z</time></trkpt>
<trkpt lat="43.08590138" lon="0.28293609"><ele></ele><time>2014-6-2T1:15:5Z</time></trkpt>
<trkpt lat="43.08589141" lon="0.28287624"><ele></ele><time>2014-6-2T1:15:8Z</time></trkpt>
<trkpt lat="43.08594639" lon="0.28281782"><ele></ele><time>2014-6-2T1:15:11Z</time></trkpt>
<trkpt lat="43.08608076" lon="0.28285353"><ele></ele><time>2014-6-2T1:15:14Z</time></trkpt>
<trkpt lat="43.08631796" lon="0.28302762"><ele></ele><time>2014-6-2T1:15:17Z</time></trkpt>
<trkpt lat="43.08647705" lon="0.28319023"><ele></ele><time>2014-6-2T1:15:20Z</time></trkpt>
<trkpt lat="43.08658602" lon="0.28339072"><ele></ele><time>2014-6-2T1:15:23Z</time></trkpt>
<trkpt lat="43.08664620" lon="0.28378450"><ele></ele><time>2014-6-2T1:15:26Z</time></trkpt>
<trkpt lat="43.08674033" lon="0.28402657"><ele></ele><time>2014-6-2T1:15:29Z</time></trkpt>
<trkpt lat="43.08690637" lon="0.28433637"><ele></ele><time>2014-6-2T1:15:32Z</time></trkpt>
<trkpt lat="43.08701375" lon="0.28460895"><ele></ele><time>2014-6-2T1:15:35Z</time></trkpt>
<trkpt lat="43.08711089" lon="0.28492847"><ele></ele><time>2014-6-2T1:15:38Z</time></trkpt>
<trkpt lat="43.08717594" lon="0.28515629"><ele></ele><time>2014-6-2T1:15:41Z</time></trkpt>
<trkpt lat="43.08725112" lon="0.28543607"><ele></ele><time>2014-6-2T1:15:44Z</time></trkpt>
<trkpt lat="43.08735489" lon="0.28575341"><ele></ele><time>2014-6-2T1:15:47Z</time></trkpt>
<trkpt lat="43.08749621" lon="0.28604091"><ele></ele><time>2014-6-2T1:15:50Z</time></trkpt>
<trkpt lat="43.08763459" lon="0.28633193"><ele></ele><time>2014-6-2T1:15:53Z</time></trkpt>
<trkpt lat="43.08787440" lon="0.28677114"><ele></ele><time>2014-6-2T1:15:56Z</time></trkpt>
<trkpt lat="43.08801178" lon="0.28707189"><ele></ele><time>2014-6-2T1:15:59Z</time></trkpt>
<trkpt lat="43.08820926" lon="0.28762979"><ele></ele><time>2014-6-2T1:16:2Z</time></trkpt>
<trkpt lat="43.08862139" lon="0.28844015"><ele></ele><time>2014-6-2T1:16:5Z</time></trkpt>
<trkpt lat="43.08875861" lon="0.28872312"><ele></ele><time>2014-6-2T1:16:8Z</time></trkpt>
<trkpt lat="43.08885374" lon="0.28899821"><ele></ele><time>2014-6-2T1:16:11Z</time></trkpt>
<trkpt lat="43.08893513" lon="0.28914473"><ele></ele><time>2014-6-2T1:16:14Z</time></trkpt>
<trkpt lat="43.08897545" lon="0.28921983"><ele></ele><time>2014-6-2T1:16:17Z</time></trkpt>
<trkpt lat="43.08898785" lon="0.28924062"><ele></ele><time>2014-6-2T1:16:20Z</time></trkpt>
<trkpt lat="43.08904200" lon="0.28931941"><ele></ele><time>2014-6-2T1:16:23Z</time></trkpt>
<trkpt lat="43.08920586" lon="0.28973322"><ele></ele><time>2014-6-2T1:16:26Z</time></trkpt>
<trkpt lat="43.08933050" lon="0.29002701"><ele></ele><time>2014-6-2T1:16:29Z</time></trkpt>
<trkpt lat="43.08947467" lon="0.29028039"><ele></ele><time>2014-6-2T1:16:32Z</time></trkpt>
<trkpt lat="43.08955153" lon="0.29044091"><ele></ele><time>2014-6-2T1:16:35Z</time></trkpt>
<trkpt lat="43.08964717" lon="0.29062187"><ele></ele><time>2014-6-2T1:16:38Z</time></trkpt>
<trkpt lat="43.08969160" lon="0.29068993"><ele></ele><time>2014-6-2T1:16:41Z</time></trkpt>
<trkpt lat="43.08967768" lon="0.29065775"><ele></ele><time>2014-6-2T1:16:44Z</time></trkpt>
<trkpt lat="43.08967550" lon="0.29065020"><ele></ele><time>2014-6-2T1:16:47Z</time></trkpt>
<trkpt lat="43.08965673" lon="0.29063445"><ele></ele><time>2014-6-2T1:16:50Z</time></trkpt>
<trkpt lat="43.08966243" lon="0.29064693"><ele></ele><time>2014-6-2T1:16:53Z</time></trkpt>
<trkpt lat="43.08970031" lon="0.29063922"><ele></ele><time>2014-6-2T1:16:56Z</time></trkpt>
<trkpt lat="43.08982830" lon="0.29058717"><ele></ele><time>2014-6-2T1:16:59Z</time></trkpt>
<trkpt lat="43.08991120" lon="0.29059262"><ele></ele><time>2014-6-2T1:17:2Z</time></trkpt>
<trkpt lat="43.08998362" lon="0.29060880"><ele></ele><time>2014-6-2T1:17:5Z</time></trkpt>
<trkpt lat="43.09022619" lon="0.29077359"><ele></ele><time>2014-6-2T1:17:8Z</time></trkpt>
<trkpt lat="43.09047396" lon="0.29096268"><ele></ele><time>2014-6-2T1:17:11Z</time></trkpt>
<trkpt lat="43.09069659" lon="0.29115027"><ele></ele><time>2014-6-2T1:17:14Z</time></trkpt>
<trkpt lat="43.09090630" lon="0.29139284"><ele></ele><time>2014-6-2T1:17:17Z</time></trkpt>
<trkpt lat="43.09102683" lon="0.29154900"><ele></ele><time>2014-6-2T1:17:20Z</time></trkpt>
<trkpt lat="43.09113152" lon="0.29191403"><ele></ele><time>2014-6-2T1:17:23Z</time></trkpt>
<trkpt lat="43.09137845" lon="0.29211176"><ele></ele><time>2014-6-2T1:17:26Z</time></trkpt>
<trkpt lat="43.09160066" lon="0.29240655"><ele></ele><time>2014-6-2T1:17:29Z</time></trkpt>
<trkpt lat="43.09179612" lon="0.29282321"><ele></ele><time>2014-6-2T1:17:32Z</time></trkpt>
<trkpt lat="43.09186335" lon="0.29317710"><ele></ele><time>2014-6-2T1:17:35Z</time></trkpt>
<trkpt lat="43.09190987" lon="0.29371907"><ele></ele><time>2014-6-2T1:17:38Z</time></trkpt>
<trkpt lat="43.09193912" lon="0.29414370"><ele></ele><time>2014-6-2T1:17:41Z</time></trkpt>
<trkpt lat="43.09190442" lon="0.29494149"><ele></ele><time>2014-6-2T1:17:44Z</time></trkpt>
<trkpt lat="43.09185664" lon="0.29571413"><ele></ele><time>2014-6-2T1:17:47Z</time></trkpt>
<trkpt lat="43.09174374" lon="0.29669641"><ele></ele><time>2014-6-2T1:17:50Z</time></trkpt>
<trkpt lat="43.09170686" lon="0.29732790"><ele></ele><time>2014-6-2T1:17:53Z</time></trkpt>
<trkpt lat="43.09172370" lon="0.29778396"><ele></ele><time>2014-6-2T1:17:56Z</time></trkpt>
<trkpt lat="43.09179260" lon="0.29847899"><ele></ele><time>2014-6-2T1:17:59Z</time></trkpt>
<trkpt lat="43.09185899" lon="0.29909095"><ele></ele><time>2014-6-2T1:18:2Z</time></trkpt>
<trkpt lat="43.09186326" lon="0.29972051"><ele></ele><time>2014-6-2T1:18:5Z</time></trkpt>
<trkpt lat="43.09149169" lon="0.30250079"><ele></ele><time>2014-6-2T1:18:8Z</time></trkpt>
<trkpt lat="43.09113404" lon="0.30347711"><ele></ele><time>2014-6-2T1:18:11Z</time></trkpt>
<trkpt lat="43.09096950" lon="0.30407969"><ele></ele><time>2014-6-2T1:18:14Z</time></trkpt>
<trkpt lat="43.09087235" lon="0.30495300"><ele></ele><time>2014-6-2T1:18:17Z</time></trkpt>
<trkpt lat="43.09092399" lon="0.30558500"><ele></ele><time>2014-6-2T1:18:20Z</time></trkpt>
<trkpt lat="43.09095575" lon="0.30633861"><ele></ele><time>2014-6-2T1:18:23Z</time></trkpt>
<trkpt lat="43.09074562" lon="0.30659518"><ele></ele><time>2014-6-2T1:18:26Z</time></trkpt>
<trkpt lat="43.09043029" lon="0.30674321"><ele></ele><time>2014-6-2T1:18:29Z</time></trkpt>
<trkpt lat="43.09013483" lon="0.30682820"><ele></ele><time>2014-6-2T1:18:32Z</time></trkpt>
<trkpt lat="43.08984783" lon="0.30685661"><ele></ele><time>2014-6-2T1:18:35Z</time></trkpt>
<trkpt lat="43.08958322" lon="0.30689685"><ele></ele><time>2014-6-2T1:18:38Z</time></trkpt>
<trkpt lat="43.08929924" lon="0.30696516"><ele></ele><time>2014-6-2T1:18:41Z</time></trkpt>
<trkpt lat="43.08890940" lon="0.30702341"><ele></ele><time>2014-6-2T1:18:44Z</time></trkpt>
<trkpt lat="43.08844965" lon="0.30711486"><ele></ele><time>2014-6-2T1:18:47Z</time></trkpt>
<trkpt lat="43.08803315" lon="0.30711310"><ele></ele><time>2014-6-2T1:18:50Z</time></trkpt>
<trkpt lat="43.08768706" lon="0.30709416"><ele></ele><time>2014-6-2T1:18:53Z</time></trkpt>
<trkpt lat="43.08739169" lon="0.30709902"><ele></ele><time>2014-6-2T1:18:56Z</time></trkpt>
<trkpt lat="43.08734223" lon="0.30710698"><ele></ele><time>2014-6-2T1:18:59Z</time></trkpt>
<trkpt lat="43.08695465" lon="0.30705652"><ele></ele><time>2014-6-2T1:19:2Z</time></trkpt>
<trkpt lat="43.08674611" lon="0.30702115"><ele></ele><time>2014-6-2T1:19:5Z</time></trkpt>
<trkpt lat="43.08672356" lon="0.30698209"><ele></ele><time>2014-6-2T1:19:8Z</time></trkpt>
<trkpt lat="43.08665777" lon="0.30696365"><ele></ele><time>2014-6-2T1:19:11Z</time></trkpt>
<trkpt lat="43.08633355" lon="0.30701763"><ele></ele><time>2014-6-2T1:19:14Z</time></trkpt>
<trkpt lat="43.08616030" lon="0.30726741"><ele></ele><time>2014-6-2T1:19:17Z</time></trkpt>
<trkpt lat="43.08594857" lon="0.30780377"><ele></ele><time>2014-6-2T1:19:20Z</time></trkpt>
<trkpt lat="43.08583232" lon="0.30834792"><ele></ele><time>2014-6-2T1:19:23Z</time></trkpt>
<trkpt lat="43.08598998" lon="0.30877003"><ele></ele><time>2014-6-2T1:19:26Z</time></trkpt>
<trkpt lat="43.08632643" lon="0.30914630"><ele></ele><time>2014-6-2T1:19:29Z</time></trkpt>
<trkpt lat="43.08676455" lon="0.30952994"><ele></ele><time>2014-6-2T1:19:32Z</time></trkpt>
<trkpt lat="43.08713210" lon="0.30997560"><ele></ele><time>2014-6-2T1:19:35Z</time></trkpt>
<trkpt lat="43.08767499" lon="0.31087741"><ele></ele><time>2014-6-2T1:19:38Z</time></trkpt>
<trkpt lat="43.08768941" lon="0.31093416"><ele></ele><time>2014-6-2T1:19:41Z</time></trkpt>
<trkpt lat="43.08767541" lon="0.31096534"><ele></ele><time>2014-6-2T1:19:44Z</time></trkpt>
<trkpt lat="43.08772420" lon="0.31111982"><ele></ele><time>2014-6-2T1:19:47Z</time></trkpt>
<trkpt lat="43.08795772" lon="0.31168987"><ele></ele><time>2014-6-2T1:19:50Z</time></trkpt>
<trkpt lat="43.08822225" lon="0.31258506"><ele></ele><time>2014-6-2T1:19:53Z</time></trkpt>
<trkpt lat="43.08827095" lon="0.31283685"><ele></ele><time>2014-6-2T1:19:56Z</time></trkpt>
<trkpt lat="43.08837304" lon="0.31287415"><ele></ele><time>2014-6-2T1:19:59Z</time></trkpt>
<trkpt lat="43.08882415" lon="0.31308663"><ele></ele><time>2014-6-2T1:20:2Z</time></trkpt>
<trkpt lat="43.08888811" lon="0.31317581"><ele></ele><time>2014-6-2T1:20:5Z</time></trkpt>
<trkpt lat="43.09017314" lon="0.31794160"><ele></ele><time>2014-6-2T1:20:8Z</time></trkpt>
<trkpt lat="43.09037598" lon="0.31758738"><ele></ele><time>2014-6-2T1:20:11Z</time></trkpt>
<trkpt lat="43.09054588" lon="0.31712981"><ele></ele><time>2014-6-2T1:20:14Z</time></trkpt>
<trkpt lat="43.09091577" lon="0.31649714"><ele></ele><time>2014-6-2T1:20:17Z</time></trkpt>
<trkpt lat="43.09137493" lon="0.31577823"><ele></ele><time>2014-6-2T1:20:20Z</time></trkpt>
<trkpt lat="43.09169663" lon="0.31545200"><ele></ele><time>2014-6-2T1:20:23Z</time></trkpt>
<trkpt lat="43.09195387" lon="0.31489863"><ele></ele><time>2014-6-2T1:20:26Z</time></trkpt>
<trkpt lat="43.09210986" lon="0.31401082"><ele></ele><time>2014-6-2T1:20:29Z</time></trkpt>
<trkpt lat="43.09234573" lon="0.31321831"><ele></ele><time>2014-6-2T1:20:32Z</time></trkpt>
<trkpt lat="43.09242116" lon="0.31300306"><ele></ele><time>2014-6-2T1:20:35Z</time></trkpt>
<trkpt lat="43.09287320" lon="0.31211358"><ele></ele><time>2014-6-2T1:20:38Z</time></trkpt>
<trkpt lat="43.09302801" lon="0.31187276"><ele></ele><time>2014-6-2T1:20:41Z</time></trkpt>
<trkpt lat="43.09346572" lon="0.31120037"><ele></ele><time>2014-6-2T1:20:44Z</time></trkpt>
<trkpt lat="43.09394835" lon="0.31016361"><ele></ele><time>2014-6-2T1:20:47Z</time></trkpt>
<trkpt lat="43.09675301" lon="0.30520144"><ele></ele><time>2014-6-2T1:20:50Z</time></trkpt>
<trkpt lat="43.09680800" lon="0.30503112"><ele></ele><time>2014-6-2T1:20:53Z</time></trkpt>
<trkpt lat="43.09694353" lon="0.30359488"><ele></ele><time>2014-6-2T1:20:56Z</time></trkpt>
<trkpt lat="43.09690758" lon="0.30310496"><ele></ele><time>2014-6-2T1:20:59Z</time></trkpt>
<trkpt lat="43.09686391" lon="0.30262643"><ele></ele><time>2014-6-2T1:21:2Z</time></trkpt>
<trkpt lat="43.09690825" lon="0.30125507"><ele></ele><time>2014-6-2T1:21:5Z</time></trkpt>
<trkpt lat="43.09686022" lon="0.30036977"><ele></ele><time>2014-6-2T1:21:8Z</time></trkpt>
<trkpt lat="43.09695452" lon="0.29991355"><ele></ele><time>2014-6-2T1:21:11Z</time></trkpt>
<trkpt lat="43.09756212" lon="0.29818713"><ele></ele><time>2014-6-2T1:21:14Z</time></trkpt>
<trkpt lat="43.09759883" lon="0.29805863"><ele></ele><time>2014-6-2T1:21:17Z</time></trkpt>
<trkpt lat="43.09765315" lon="0.29755421"><ele></ele><time>2014-6-2T1:21:20Z</time></trkpt>
<trkpt lat="43.09757436" lon="0.29712480"><ele></ele><time>2014-6-2T1:21:23Z</time></trkpt>
<trkpt lat="43.09756581" lon="0.29713076"><ele></ele><time>2014-6-2T1:21:26Z</time></trkpt>
<trkpt lat="43.09757142" lon="0.29713109"><ele></ele><time>2014-6-2T1:21:29Z</time></trkpt>
<trkpt lat="43.09756941" lon="0.29704886"><ele></ele><time>2014-6-2T1:21:32Z</time></trkpt>
<trkpt lat="43.09755726" lon="0.29703956"><ele></ele><time>2014-6-2T1:21:35Z</time></trkpt>
<trkpt lat="43.09755776" lon="0.29704140"><ele></ele><time>2014-6-2T1:21:38Z</time></trkpt>
<trkpt lat="43.09756715" lon="0.29706446"><ele></ele><time>2014-6-2T1:21:41Z</time></trkpt>
<trkpt lat="43.09757939" lon="0.29707183"><ele></ele><time>2014-6-2T1:21:44Z</time></trkpt>
<trkpt lat="43.09758584" lon="0.29706890"><ele></ele><time>2014-6-2T1:21:47Z</time></trkpt>
<trkpt lat="43.09757855" lon="0.29709178"><ele></ele><time>2014-6-2T1:21:50Z</time></trkpt>
<trkpt lat="43.09758031" lon="0.29711508"><ele></ele><time>2014-6-2T1:21:53Z</time></trkpt>
<trkpt lat="43.09757209" lon="0.29715288"><ele></ele><time>2014-6-2T1:21:56Z</time></trkpt>
<trkpt lat="43.09756924" lon="0.29716923"><ele></ele><time>2014-6-2T1:21:59Z</time></trkpt>
<trkpt lat="43.09760059" lon="0.29716261"><ele></ele><time>2014-6-2T1:22:2Z</time></trkpt>
<trkpt lat="43.09781232" lon="0.29703503"><ele></ele><time>2014-6-2T1:22:5Z</time></trkpt>
<trkpt lat="43.09905963" lon="0.29513092"><ele></ele><time>2014-6-2T1:22:8Z</time></trkpt>
<trkpt lat="43.10021340" lon="0.29399768"><ele></ele><time>2014-6-2T1:22:11Z</time></trkpt>
<trkpt lat="43.10107757" lon="0.29329377"><ele></ele><time>2014-6-2T1:22:14Z</time></trkpt>
<trkpt lat="43.10127044" lon="0.29321674"><ele></ele><time>2014-6-2T1:22:17Z</time></trkpt>
<trkpt lat="43.10141444" lon="0.29437537"><ele></ele><time>2014-6-2T1:22:20Z</time></trkpt>
<trkpt lat="43.10137656" lon="0.29428326"><ele></ele><time>2014-6-2T1:22:23Z</time></trkpt>
<trkpt lat="43.10126248" lon="0.29449984"><ele></ele><time>2014-6-2T1:22:26Z</time></trkpt>
<trkpt lat="43.09998357" lon="0.29613834"><ele></ele><time>2014-6-2T1:22:29Z</time></trkpt>
<trkpt lat="43.09997133" lon="0.29633364"><ele></ele><time>2014-6-2T1:22:32Z</time></trkpt>
<trkpt lat="43.10003185" lon="0.29689749"><ele></ele><time>2014-6-2T1:22:35Z</time></trkpt>
<trkpt lat="43.10066753" lon="0.29684552"><ele></ele><time>2014-6-2T1:22:38Z</time></trkpt>
<trkpt lat="43.10076308" lon="0.29683161"><ele></ele><time>2014-6-2T1:22:41Z</time></trkpt>
<trkpt lat="43.10100683" lon="0.29693730"><ele></ele><time>2014-6-2T1:22:44Z</time></trkpt>
<trkpt lat="43.10107573" lon="0.29692381"><ele></ele><time>2014-6-2T1:22:47Z</time></trkpt>
<trkpt lat="43.10113155" lon="0.29704275"><ele></ele><time>2014-6-2T1:22:50Z</time></trkpt>
<trkpt lat="43.10110934" lon="0.29720452"><ele></ele><time>2014-6-2T1:22:53Z</time></trkpt>
<trkpt lat="43.10110356" lon="0.29753200"><ele></ele><time>2014-6-2T1:22:56Z</time></trkpt>
<trkpt lat="43.10110037" lon="0.29847664"><ele></ele><time>2014-6-2T1:22:59Z</time></trkpt>
<trkpt lat="43.10103516" lon="0.29892088"><ele></ele><time>2014-6-2T1:23:2Z</time></trkpt>
<trkpt lat="43.10095679" lon="0.29927208"><ele></ele><time>2014-6-2T1:23:5Z</time></trkpt>
<trkpt lat="43.10087331" lon="0.29962462"><ele></ele><time>2014-6-2T1:23:8Z</time></trkpt>
<trkpt lat="43.10076728" lon="0.30000734"><ele></ele><time>2014-6-2T1:23:11Z</time></trkpt>
<trkpt lat="43.10071975" lon="0.30033834"><ele></ele><time>2014-6-2T1:23:14Z</time></trkpt>
<trkpt lat="43.10060031" lon="0.30120159"><ele></ele><time>2014-6-2T1:23:17Z</time></trkpt>
<trkpt lat="43.10049185" lon="0.30159705"><ele></ele><time>2014-6-2T1:23:20Z</time></trkpt>
<trkpt lat="43.10040367" lon="0.30198329"><ele></ele><time>2014-6-2T1:23:23Z</time></trkpt>
<trkpt lat="43.10034541" lon="0.30234262"><ele></ele><time>2014-6-2T1:23:26Z</time></trkpt>
<trkpt lat="43.10026017" lon="0.30263079"><ele></ele><time>2014-6-2T1:23:29Z</time></trkpt>
<trkpt lat="43.10016495" lon="0.30294905"><ele></ele><time>2014-6-2T1:23:32Z</time></trkpt>
<trkpt lat="43.10014936" lon="0.30304964"><ele></ele><time>2014-6-2T1:23:35Z</time></trkpt>
<trkpt lat="43.10018968" lon="0.30334275"><ele></ele><time>2014-6-2T1:23:38Z</time></trkpt>
<trkpt lat="43.10018255" lon="0.30333932"><ele></ele><time>2014-6-2T1:23:41Z</time></trkpt>
<trkpt lat="43.10017811" lon="0.30340495"><ele></ele><time>2014-6-2T1:23:44Z</time></trkpt>
<trkpt lat="43.10019060" lon="0.30361005"><ele></ele><time>2014-6-2T1:23:47Z</time></trkpt>
<trkpt lat="43.10023494" lon="0.30386687"><ele></ele><time>2014-6-2T1:23:50Z</time></trkpt>
<trkpt lat="43.10026704" lon="0.30412277"><ele></ele><time>2014-6-2T1:23:53Z</time></trkpt>
<trkpt lat="43.10028599" lon="0.30418949"><ele></ele><time>2014-6-2T1:23:56Z</time></trkpt>
<trkpt lat="43.10032052" lon="0.30440843"><ele></ele><time>2014-6-2T1:23:59Z</time></trkpt>
<trkpt lat="43.10030099" lon="0.30460381"><ele></ele><time>2014-6-2T1:24:2Z</time></trkpt>
<trkpt lat="43.10031985" lon="0.30465678"><ele></ele><time>2014-6-2T1:24:5Z</time></trkpt>
<trkpt lat="43.10035438" lon="0.30479458"><ele></ele><time>2014-6-2T1:24:8Z</time></trkpt>
<trkpt lat="43.10047751" lon="0.30519465"><ele></ele><time>2014-6-2T1:24:11Z</time></trkpt>
<trkpt lat="43.10054440" lon="0.30555507"><ele></ele><time>2014-6-2T1:24:14Z</time></trkpt>
<trkpt lat="43.10063526" lon="0.30589756"><ele></ele><time>2014-6-2T1:24:17Z</time></trkpt>
<trkpt lat="43.10074749" lon="0.30612839"><ele></ele><time>2014-6-2T1:24:20Z</time></trkpt>
<trkpt lat="43.10080768" lon="0.30633065"><ele></ele><time>2014-6-2T1:24:23Z</time></trkpt>
<trkpt lat="43.10085990" lon="0.30654129"><ele></ele><time>2014-6-2T1:24:26Z</time></trkpt>
<trkpt lat="43.10091052" lon="0.30673524"><ele></ele><time>2014-6-2T1:24:29Z</time></trkpt>
<trkpt lat="43.10097221" lon="0.30697790"><ele></ele><time>2014-6-2T1:24:32Z</time></trkpt>
<trkpt lat="43.10101127" lon="0.30719625"><ele></ele><time>2014-6-2T1:24:35Z</time></trkpt>
<trkpt lat="43.10104019" lon="0.30736280"><ele></ele><time>2014-6-2T1:24:38Z</time></trkpt>
<trkpt lat="43.10109350" lon="0.30755382"><ele></ele><time>2014-6-2T1:24:41Z</time></trkpt>
<trkpt lat="43.10118084" lon="0.30781408"><ele></ele><time>2014-6-2T1:24:44Z</time></trkpt>
<trkpt lat="43.10129969" lon="0.30807861"><ele></ele><time>2014-6-2T1:24:47Z</time></trkpt>
<trkpt lat="43.10144830" lon="0.30836150"><ele></ele><time>2014-6-2T1:24:50Z</time></trkpt>
<trkpt lat="43.10153003" lon="0.30851397"><ele></ele><time>2014-6-2T1:24:53Z</time></trkpt>
<trkpt lat="43.10161628" lon="0.30864523"><ele></ele><time>2014-6-2T1:24:56Z</time></trkpt>
<trkpt lat="43.10192800" lon="0.30879610"><ele></ele><time>2014-6-2T1:24:59Z</time></trkpt>
<trkpt lat="43.10216999" lon="0.30896910"><ele></ele><time>2014-6-2T1:25:2Z</time></trkpt>
<trkpt lat="43.10235632" lon="0.30928183"><ele></ele><time>2014-6-2T1:25:5Z</time></trkpt>
<trkpt lat="43.10241600" lon="0.30937546"><ele></ele><time>2014-6-2T1:25:8Z</time></trkpt>
<trkpt lat="43.10249428" lon="0.30948191"><ele></ele><time>2014-6-2T1:25:11Z</time></trkpt>
<trkpt lat="43.10264465" lon="0.30956514"><ele></ele><time>2014-6-2T1:25:14Z</time></trkpt>
<trkpt lat="43.10277969" lon="0.30960127"><ele></ele><time>2014-6-2T1:25:17Z</time></trkpt>
<trkpt lat="43.10292134" lon="0.30968542"><ele></ele><time>2014-6-2T1:25:20Z</time></trkpt>
<trkpt lat="43.10293308" lon="0.30974225"><ele></ele><time>2014-6-2T1:25:23Z</time></trkpt>
<trkpt lat="43.10292419" lon="0.30978433"><ele></ele><time>2014-6-2T1:25:26Z</time></trkpt>
<trkpt lat="43.10288463" lon="0.30985717"><ele></ele><time>2014-6-2T1:25:29Z</time></trkpt>
<trkpt lat="43.10286862" lon="0.30989229"><ele></ele><time>2014-6-2T1:25:32Z</time></trkpt>
<trkpt lat="43.10282118" lon="0.30999832"><ele></ele><time>2014-6-2T1:25:35Z</time></trkpt>
<trkpt lat="43.10264323" lon="0.31035740"><ele></ele><time>2014-6-2T1:25:38Z</time></trkpt>
<trkpt lat="43.10225029" lon="0.31104145"><ele></ele><time>2014-6-2T1:25:41Z</time></trkpt>
<trkpt lat="43.10202548" lon="0.31165316"><ele></ele><time>2014-6-2T1:25:44Z</time></trkpt>
<trkpt lat="43.10203889" lon="0.31210712"><ele></ele><time>2014-6-2T1:25:47Z</time></trkpt>
<trkpt lat="43.10206312" lon="0.31219538"><ele></ele><time>2014-6-2T1:25:50Z</time></trkpt>
<trkpt lat="43.10238498" lon="0.31210142"><ele></ele><time>2014-6-2T1:25:53Z</time></trkpt>
<trkpt lat="43.10283568" lon="0.31194108"><ele></ele><time>2014-6-2T1:25:56Z</time></trkpt>
<trkpt lat="43.10304900" lon="0.31194854"><ele></ele><time>2014-6-2T1:25:59Z</time></trkpt>
<trkpt lat="43.10306308" lon="0.31194317"><ele></ele><time>2014-6-2T1:26:2Z</time></trkpt>
<trkpt lat="43.10307967" lon="0.31202448"><ele></ele><time>2014-6-2T1:26:5Z</time></trkpt>
<trkpt lat="43.10317799" lon="0.31189799"><ele></ele><time>2014-6-2T1:26:8Z</time></trkpt>
<trkpt lat="43.10333239" lon="0.31190663"><ele></ele><time>2014-6-2T1:26:11Z</time></trkpt>
<trkpt lat="43.10351545" lon="0.31213612"><ele></ele><time>2014-6-2T1:26:14Z</time></trkpt>
<trkpt lat="43.10358854" lon="0.31229882"><ele></ele><time>2014-6-2T1:26:17Z</time></trkpt>
<trkpt lat="43.10365375" lon="0.31260593"><ele></ele><time>2014-6-2T1:26:20Z</time></trkpt>
<trkpt lat="43.10389775" lon="0.31291581"><ele></ele><time>2014-6-2T1:26:23Z</time></trkpt>
<trkpt lat="43.10408022" lon="0.31290885"><ele></ele><time>2014-6-2T1:26:26Z</time></trkpt>
<trkpt lat="43.10423202" lon="0.31287381"><ele></ele><time>2014-6-2T1:26:29Z</time></trkpt>
<trkpt lat="43.10481817" lon="0.31292737"><ele></ele><time>2014-6-2T1:26:32Z</time></trkpt>
<trkpt lat="43.10497155" lon="0.31288077"><ele></ele><time>2014-6-2T1:26:35Z</time></trkpt>
<trkpt lat="43.10516744" lon="0.31269914"><ele></ele><time>2014-6-2T1:26:38Z</time></trkpt>
<trkpt lat="43.10537514" lon="0.31245522"><ele></ele><time>2014-6-2T1:26:41Z</time></trkpt>
<trkpt lat="43.10573741" lon="0.31211098"><ele></ele><time>2014-6-2T1:26:44Z</time></trkpt>
<trkpt lat="43.10615726" lon="0.31167277"><ele></ele><time>2014-6-2T1:26:47Z</time></trkpt>
<trkpt lat="43.10650972" lon="0.31124110"><ele></ele><time>2014-6-2T1:26:50Z</time></trkpt>
<trkpt lat="43.10670359" lon="0.31098613"><ele></ele><time>2014-6-2T1:26:53Z</time></trkpt>
<trkpt lat="43.10684709" lon="0.31079359"><ele></ele><time>2014-6-2T1:26:56Z</time></trkpt>
<trkpt lat="43.10739040" lon="0.31027148"><ele></ele><time>2014-6-2T1:26:59Z</time></trkpt>
<trkpt lat="43.10793531" lon="0.30982397"><ele></ele><time>2014-6-2T1:27:2Z</time></trkpt>
<trkpt lat="43.11018141" lon="0.30863718"><ele></ele><time>2014-6-2T1:27:5Z</time></trkpt>
<trkpt lat="43.11036045" lon="0.30844473"><ele></ele><time>2014-6-2T1:27:8Z</time></trkpt>
<trkpt lat="43.11039716" lon="0.30840643"><ele></ele><time>2014-6-2T1:27:11Z</time></trkpt>
<trkpt lat="43.11060025" lon="0.30817626"><ele></ele><time>2014-6-2T1:27:14Z</time></trkpt>
<trkpt lat="43.11087652" lon="0.30772339"><ele></ele><time>2014-6-2T1:27:17Z</time></trkpt>
<trkpt lat="43.11107911" lon="0.30740814"><ele></ele><time>2014-6-2T1:27:20Z</time></trkpt>
<trkpt lat="43.11133962" lon="0.30694203"><ele></ele><time>2014-6-2T1:27:23Z</time></trkpt>
<trkpt lat="43.11168789" lon="0.30642143"><ele></ele><time>2014-6-2T1:27:26Z</time></trkpt>
<trkpt lat="43.11211914" lon="0.30590896"><ele></ele><time>2014-6-2T1:27:29Z</time></trkpt>
<trkpt lat="43.11258869" lon="0.30546647"><ele></ele><time>2014-6-2T1:27:32Z</time></trkpt>
<trkpt lat="43.11305414" lon="0.30495141"><ele></ele><time>2014-6-2T1:27:35Z</time></trkpt>
<trkpt lat="43.11420657" lon="0.30382421"><ele></ele><time>2014-6-2T1:27:38Z</time></trkpt>
<trkpt lat="43.11505741" lon="0.30265485"><ele></ele><time>2014-6-2T1:27:41Z</time></trkpt>
<trkpt lat="43.11624102" lon="0.30103882"><ele></ele><time>2014-6-2T1:27:44Z</time></trkpt>
<trkpt lat="43.11820004" lon="0.30013148"><ele></ele><time>2014-6-2T1:27:47Z</time></trkpt>
<trkpt lat="43.11832879" lon="0.30014154"><ele></ele><time>2014-6-2T1:27:50Z</time></trkpt>
<trkpt lat="43.11837573" lon="0.30000122"><ele></ele><time>2014-6-2T1:27:53Z</time></trkpt>
<trkpt lat="43.11839039" lon="0.29994934"><ele></ele><time>2014-6-2T1:27:56Z</time></trkpt>
<trkpt lat="43.11825788" lon="0.29961356"><ele></ele><time>2014-6-2T1:27:59Z</time></trkpt>
<trkpt lat="43.11822628" lon="0.29950233"><ele></ele><time>2014-6-2T1:28:2Z</time></trkpt>
<trkpt lat="43.11844764" lon="0.29944140"><ele></ele><time>2014-6-2T1:28:5Z</time></trkpt>
<trkpt lat="43.11872341" lon="0.29954910"><ele></ele><time>2014-6-2T1:28:8Z</time></trkpt>
<trkpt lat="43.11790098" lon="0.29851235"><ele></ele><time>2014-6-2T1:28:11Z</time></trkpt>
<trkpt lat="43.11771104" lon="0.29844873"><ele></ele><time>2014-6-2T1:28:14Z</time></trkpt>
<trkpt lat="43.11754927" lon="0.29837698"><ele></ele><time>2014-6-2T1:28:17Z</time></trkpt>
<trkpt lat="43.11754231" lon="0.29833146"><ele></ele><time>2014-6-2T1:28:20Z</time></trkpt>
<trkpt lat="43.11897059" lon="0.29729471"><ele></ele><time>2014-6-2T1:28:23Z</time></trkpt>
<trkpt lat="43.11946303" lon="0.29750417"><ele></ele><time>2014-6-2T1:28:26Z</time></trkpt>
<trkpt lat="43.11959982" lon="0.29769662"><ele></ele><time>2014-6-2T1:28:29Z</time></trkpt>
<trkpt lat="43.11958892" lon="0.29752747"><ele></ele><time>2014-6-2T1:28:32Z</time></trkpt>
<trkpt lat="43.11961139" lon="0.29761875"><ele></ele><time>2014-6-2T1:28:35Z</time></trkpt>
<trkpt lat="43.11960317" lon="0.29769008"><ele></ele><time>2014-6-2T1:28:38Z</time></trkpt>
<trkpt lat="43.11973929" lon="0.29816207"><ele></ele><time>2014-6-2T1:28:41Z</time></trkpt>
<trkpt lat="43.11982990" lon="0.29889498"><ele></ele><time>2014-6-2T1:28:44Z</time></trkpt>
<trkpt lat="43.11975991" lon="0.30005302"><ele></ele><time>2014-6-2T1:28:47Z</time></trkpt>
<trkpt lat="43.11988757" lon="0.30008152"><ele></ele><time>2014-6-2T1:28:50Z</time></trkpt>
<trkpt lat="43.12022318" lon="0.29969738"><ele></ele><time>2014-6-2T1:28:53Z</time></trkpt>
<trkpt lat="43.12039803" lon="0.29941658"><ele></ele><time>2014-6-2T1:28:56Z</time></trkpt>
<trkpt lat="43.12071805" lon="0.29914727"><ele></ele><time>2014-6-2T1:28:59Z</time></trkpt>
<trkpt lat="43.12065527" lon="0.29883144"><ele></ele><time>2014-6-2T1:29:2Z</time></trkpt>
<trkpt lat="43.12095702" lon="0.29751322"><ele></ele><time>2014-6-2T1:29:5Z</time></trkpt>
<trkpt lat="43.12137796" lon="0.29738741"><ele></ele><time>2014-6-2T1:29:8Z</time></trkpt>
<trkpt lat="43.12188925" lon="0.29744055"><ele></ele><time>2014-6-2T1:29:11Z</time></trkpt>
<trkpt lat="43.12222352" lon="0.29728632"><ele></ele><time>2014-6-2T1:29:14Z</time></trkpt>
<trkpt lat="43.12237280" lon="0.29694887"><ele></ele><time>2014-6-2T1:29:17Z</time></trkpt>
<trkpt lat="43.12262242" lon="0.29653455"><ele></ele><time>2014-6-2T1:29:20Z</time></trkpt>
<trkpt lat="43.12304470" lon="0.29612157"><ele></ele><time>2014-6-2T1:29:23Z</time></trkpt>
<trkpt lat="43.12330412" lon="0.29550064"><ele></ele><time>2014-6-2T1:29:26Z</time></trkpt>
<trkpt lat="43.12344979" lon="0.29535689"><ele></ele><time>2014-6-2T1:29:29Z</time></trkpt>
<trkpt lat="43.12351056" lon="0.29556971"><ele></ele><time>2014-6-2T1:29:32Z</time></trkpt>
<trkpt lat="43.12350009" lon="0.29561296"><ele></ele><time>2014-6-2T1:29:35Z</time></trkpt>
<trkpt lat="43.12330789" lon="0.29635099"><ele></ele><time>2014-6-2T1:29:38Z</time></trkpt>
<trkpt lat="43.12339137" lon="0.29637286"><ele></ele><time>2014-6-2T1:29:41Z</time></trkpt>
<trkpt lat="43.12351425" lon="0.29597246"><ele></ele><time>2014-6-2T1:29:44Z</time></trkpt>
<trkpt lat="43.12380921" lon="0.29581840"><ele></ele><time>2014-6-2T1:29:47Z</time></trkpt>
<trkpt lat="43.12411339" lon="0.29558228"><ele></ele><time>2014-6-2T1:29:50Z</time></trkpt>
<trkpt lat="43.12450583" lon="0.29517325"><ele></ele><time>2014-6-2T1:29:53Z</time></trkpt>
<trkpt lat="43.12481345" lon="0.29487996"><ele></ele><time>2014-6-2T1:29:56Z</time></trkpt>
<trkpt lat="43.12509525" lon="0.29453966"><ele></ele><time>2014-6-2T1:29:59Z</time></trkpt>
<trkpt lat="43.12534335" lon="0.29420966"><ele></ele><time>2014-6-2T1:30:2Z</time></trkpt>
<trkpt lat="43.12552348" lon="0.29369543"><ele></ele><time>2014-6-2T1:30:5Z</time></trkpt>
<trkpt lat="43.12558626" lon="0.29348354"><ele></ele><time>2014-6-2T1:30:8Z</time></trkpt>
<trkpt lat="43.12564661" lon="0.29346334"><ele></ele><time>2014-6-2T1:30:11Z</time></trkpt>
<trkpt lat="43.12562020" lon="0.29343484"><ele></ele><time>2014-6-2T1:30:14Z</time></trkpt>
<trkpt lat="43.12554955" lon="0.29330031"><ele></ele><time>2014-6-2T1:30:17Z</time></trkpt>
<trkpt lat="43.12555642" lon="0.29324574"><ele></ele><time>2014-6-2T1:30:20Z</time></trkpt>
<trkpt lat="43.12561308" lon="0.29315715"><ele></ele><time>2014-6-2T1:30:23Z</time></trkpt>
<trkpt lat="43.12562976" lon="0.29303351"><ele></ele><time>2014-6-2T1:30:26Z</time></trkpt>
<trkpt lat="43.12562498" lon="0.29295640"><ele></ele><time>2014-6-2T1:30:29Z</time></trkpt>
<trkpt lat="43.12557788" lon="0.28871692"><ele></ele><time>2014-6-2T1:30:32Z</time></trkpt>
<trkpt lat="43.12555164" lon="0.28888104"><ele></ele><time>2014-6-2T1:30:35Z</time></trkpt>
<trkpt lat="43.12552390" lon="0.28886251"><ele></ele><time>2014-6-2T1:30:38Z</time></trkpt>
<trkpt lat="43.12555818" lon="0.28878850"><ele></ele><time>2014-6-2T1:30:41Z</time></trkpt>
<trkpt lat="43.12555189" lon="0.28882245"><ele></ele><time>2014-6-2T1:30:44Z</time></trkpt>
<trkpt lat="43.12557067" lon="0.28889428"><ele></ele><time>2014-6-2T1:30:47Z</time></trkpt>
<trkpt lat="43.12623711" lon="0.28848524"><ele></ele><time>2014-6-2T1:30:50Z</time></trkpt>
<trkpt lat="43.12661547" lon="0.28852648"><ele></ele><time>2014-6-2T1:30:53Z</time></trkpt>
<trkpt lat="43.12670222" lon="0.28864827"><ele></ele><time>2014-6-2T1:30:56Z</time></trkpt>
<trkpt lat="43.12692870" lon="0.28829782"><ele></ele><time>2014-6-2T1:30:59Z</time></trkpt>
<trkpt lat="43.12749499" lon="0.28455891"><ele></ele><time>2014-6-2T1:31:2Z</time></trkpt>
<trkpt lat="43.12732433" lon="0.28260852"><ele></ele><time>2014-6-2T1:31:5Z</time></trkpt>
<trkpt lat="43.12738082" lon="0.28266024"><ele></ele><time>2014-6-2T1:31:8Z</time></trkpt>
<trkpt lat="43.12743933" lon="0.28251984"><ele></ele><time>2014-6-2T1:31:11Z</time></trkpt>
<trkpt lat="43.12734093" lon="0.28255438"><ele></ele><time>2014-6-2T1:31:14Z</time></trkpt>
<trkpt lat="43.12725543" lon="0.28264532"><ele></ele><time>2014-6-2T1:31:17Z</time></trkpt>
<trkpt lat="43.12725384" lon="0.28272394"><ele></ele><time>2014-6-2T1:31:20Z</time></trkpt>
<trkpt lat="43.12701814" lon="0.28245999"><ele></ele><time>2014-6-2T1:31:23Z</time></trkpt>
<trkpt lat="43.12623460" lon="0.28241716"><ele></ele><time>2014-6-2T1:31:26Z</time></trkpt>
<trkpt lat="43.12567142" lon="0.28241624"><ele></ele><time>2014-6-2T1:31:29Z</time></trkpt>
<trkpt lat="43.12556899" lon="0.28249637"><ele></ele><time>2014-6-2T1:31:32Z</time></trkpt>
<trkpt lat="43.12552859" lon="0.28258589"><ele></ele><time>2014-6-2T1:31:35Z</time></trkpt>
<trkpt lat="43.12534922" lon="0.28293349"><ele></ele><time>2014-6-2T1:31:38Z</time></trkpt>
<trkpt lat="43.12510891" lon="0.28307355"><ele></ele><time>2014-6-2T1:31:41Z</time></trkpt>
<trkpt lat="43.12478864" lon="0.28330766"><ele></ele><time>2014-6-2T1:31:44Z</time></trkpt>
<trkpt lat="43.12453031" lon="0.28363329"><ele></ele><time>2014-6-2T1:31:47Z</time></trkpt>
<trkpt lat="43.12344518" lon="0.28385567"><ele></ele><time>2014-6-2T1:31:50Z</time></trkpt>
<trkpt lat="43.12318233" lon="0.28374276"><ele></ele><time>2014-6-2T1:31:53Z</time></trkpt>
<trkpt lat="43.12317814" lon="0.28372508"><ele></ele><time>2014-6-2T1:31:56Z</time></trkpt>
<trkpt lat="43.12332750" lon="0.28360580"><ele></ele><time>2014-6-2T1:31:59Z</time></trkpt>
<trkpt lat="43.12367083" lon="0.28348158"><ele></ele><time>2014-6-2T1:32:2Z</time></trkpt>
<trkpt lat="43.12387493" lon="0.28319643"><ele></ele><time>2014-6-2T1:32:5Z</time></trkpt>
<trkpt lat="43.12393963" lon="0.28279200"><ele></ele><time>2014-6-2T1:32:8Z</time></trkpt>
<trkpt lat="43.12398297" lon="0.28209010"><ele></ele><time>2014-6-2T1:32:11Z</time></trkpt>
<trkpt lat="43.12381919" lon="0.28187167"><ele></ele><time>2014-6-2T1:32:14Z</time></trkpt>
<trkpt lat="43.12375599" lon="0.28185206"><ele></ele><time>2014-6-2T1:32:17Z</time></trkpt>
<trkpt lat="43.12369949" lon="0.28191626"><ele></ele><time>2014-6-2T1:32:20Z</time></trkpt>
<trkpt lat="43.12352255" lon="0.28224835"><ele></ele><time>2014-6-2T1:32:23Z</time></trkpt>
<trkpt lat="43.12327109" lon="0.28234332"><ele></ele><time>2014-6-2T1:32:26Z</time></trkpt>
<trkpt lat="43.12312592" lon="0.28223041"><ele></ele><time>2014-6-2T1:32:29Z</time></trkpt>
<trkpt lat="43.12304855" lon="0.28201626"><ele></ele><time>2014-6-2T1:32:32Z</time></trkpt>
<trkpt lat="43.12272459" lon="0.28110917"><ele></ele><time>2014-6-2T1:32:35Z</time></trkpt>
<trkpt lat="43.12272384" lon="0.28094388"><ele></ele><time>2014-6-2T1:32:38Z</time></trkpt>
<trkpt lat="43.12265133" lon="0.28091362"><ele></ele><time>2014-6-2T1:32:41Z</time></trkpt>
<trkpt lat="43.12245763" lon="0.28112283"><ele></ele><time>2014-6-2T1:32:44Z</time></trkpt>
<trkpt lat="43.12222268" lon="0.28153463"><ele></ele><time>2014-6-2T1:32:47Z</time></trkpt>
<trkpt lat="43.12194709" lon="0.28187670"><ele></ele><time>2014-6-2T1:32:50Z</time></trkpt>
<trkpt lat="43.12166562" lon="0.28218557"><ele></ele><time>2014-6-2T1:32:53Z</time></trkpt>
<trkpt lat="43.12140629" lon="0.28235883"><ele></ele><time>2014-6-2T1:32:56Z</time></trkpt>
<trkpt lat="43.12108057" lon="0.28236452"><ele></ele><time>2014-6-2T1:32:59Z</time></trkpt>
<trkpt lat="43.12078971" lon="0.28215531"><ele></ele><time>2014-6-2T1:33:2Z</time></trkpt>
<trkpt lat="43.12057095" lon="0.28189321"><ele></ele><time>2014-6-2T1:33:5Z</time></trkpt>
<trkpt lat="43.12037908" lon="0.28164913"><ele></ele><time>2014-6-2T1:33:8Z</time></trkpt>
<trkpt lat="43.12010952" lon="0.28139868"><ele></ele><time>2014-6-2T1:33:11Z</time></trkpt>
<trkpt lat="43.11980786" lon="0.28118083"><ele></ele><time>2014-6-2T1:33:14Z</time></trkpt>
<trkpt lat="43.11955665" lon="0.28097900"><ele></ele><time>2014-6-2T1:33:17Z</time></trkpt>
<trkpt lat="43.11933327" lon="0.28092803"><ele></ele><time>2014-6-2T1:33:20Z</time></trkpt>
<trkpt lat="43.11907142" lon="0.28084028"><ele></ele><time>2014-6-2T1:33:23Z</time></trkpt>
<trkpt lat="43.11894779" lon="0.28076333"><ele></ele><time>2014-6-2T1:33:26Z</time></trkpt>
<trkpt lat="43.11890789" lon="0.28075478"><ele></ele><time>2014-6-2T1:33:29Z</time></trkpt>
<trkpt lat="43.11879558" lon="0.28064573"><ele></ele><time>2014-6-2T1:33:32Z</time></trkpt>
<trkpt lat="43.11865644" lon="0.28053786"><ele></ele><time>2014-6-2T1:33:35Z</time></trkpt>
<trkpt lat="43.11852467" lon="0.28040911"><ele></ele><time>2014-6-2T1:33:38Z</time></trkpt>
<trkpt lat="43.11840414" lon="0.28030316"><ele></ele><time>2014-6-2T1:33:41Z</time></trkpt>
<trkpt lat="43.11833155" lon="0.28023343"><ele></ele><time>2014-6-2T1:33:44Z</time></trkpt>
<trkpt lat="43.11824882" lon="0.28016285"><ele></ele><time>2014-6-2T1:33:47Z</time></trkpt>
<trkpt lat="43.11815981" lon="0.28007702"><ele></ele><time>2014-6-2T1:33:50Z</time></trkpt>
<trkpt lat="43.11806819" lon="0.27999169"><ele></ele><time>2014-6-2T1:33:53Z</time></trkpt>
<trkpt lat="43.11795361" lon="0.27988910"><ele></ele><time>2014-6-2T1:33:56Z</time></trkpt>
<trkpt lat="43.11785546" lon="0.27980679"><ele></ele><time>2014-6-2T1:33:59Z</time></trkpt>
<trkpt lat="43.11775379" lon="0.27963337"><ele></ele><time>2014-6-2T1:34:2Z</time></trkpt>
<trkpt lat="43.11769235" lon="0.27948693"><ele></ele><time>2014-6-2T1:34:5Z</time></trkpt>
<trkpt lat="43.11764323" lon="0.27938769"><ele></ele><time>2014-6-2T1:34:8Z</time></trkpt>
<trkpt lat="43.11757048" lon="0.27933002"><ele></ele><time>2014-6-2T1:34:11Z</time></trkpt>
<trkpt lat="43.11757215" lon="0.27932910"><ele></ele><time>2014-6-2T1:34:14Z</time></trkpt>
<trkpt lat="43.11754650" lon="0.27934863"><ele></ele><time>2014-6-2T1:34:17Z</time></trkpt>
<trkpt lat="43.11741692" lon="0.27959347"><ele></ele><time>2014-6-2T1:34:20Z</time></trkpt>
<trkpt lat="43.11739479" lon="0.27960311"><ele></ele><time>2014-6-2T1:34:23Z</time></trkpt>
<trkpt lat="43.11744207" lon="0.27944787"><ele></ele><time>2014-6-2T1:34:26Z</time></trkpt>
<trkpt lat="43.11747132" lon="0.27939381"><ele></ele><time>2014-6-2T1:34:29Z</time></trkpt>
<trkpt lat="43.11765170" lon="0.27907790"><ele></ele><time>2014-6-2T1:34:32Z</time></trkpt>
<trkpt lat="43.11782093" lon="0.27865335"><ele></ele><time>2014-6-2T1:34:35Z</time></trkpt>
<trkpt lat="43.11801002" lon="0.27828690"><ele></ele><time>2014-6-2T1:34:38Z</time></trkpt>
<trkpt lat="43.11822619" lon="0.27785464"><ele></ele><time>2014-6-2T1:34:41Z</time></trkpt>
<trkpt lat="43.11830557" lon="0.27741845"><ele></ele><time>2014-6-2T1:34:44Z</time></trkpt>
<trkpt lat="43.11839148" lon="0.27691595"><ele></ele><time>2014-6-2T1:34:47Z</time></trkpt>
<trkpt lat="43.11841487" lon="0.27640910"><ele></ele><time>2014-6-2T1:34:50Z</time></trkpt>
<trkpt lat="43.11851420" lon="0.27606963"><ele></ele><time>2014-6-2T1:34:53Z</time></trkpt>
<trkpt lat="43.11853222" lon="0.27603443"><ele></ele><time>2014-6-2T1:34:56Z</time></trkpt>
<trkpt lat="43.11853104" lon="0.27605379"><ele></ele><time>2014-6-2T1:34:59Z</time></trkpt>
<trkpt lat="43.11854043" lon="0.27607055"><ele></ele><time>2014-6-2T1:35:2Z</time></trkpt>
<trkpt lat="43.11852811" lon="0.27604449"><ele></ele><time>2014-6-2T1:35:5Z</time></trkpt>
<trkpt lat="43.11852710" lon="0.27602336"><ele></ele><time>2014-6-2T1:35:8Z</time></trkpt>
<trkpt lat="43.11851646" lon="0.27601548"><ele></ele><time>2014-6-2T1:35:11Z</time></trkpt>
<trkpt lat="43.11851378" lon="0.27603426"><ele></ele><time>2014-6-2T1:35:14Z</time></trkpt>
<trkpt lat="43.11850841" lon="0.27601708"><ele></ele><time>2014-6-2T1:35:17Z</time></trkpt>
<trkpt lat="43.11851151" lon="0.27605312"><ele></ele><time>2014-6-2T1:35:20Z</time></trkpt>
<trkpt lat="43.11852761" lon="0.27603443"><ele></ele><time>2014-6-2T1:35:23Z</time></trkpt>
<trkpt lat="43.11851964" lon="0.27603401"><ele></ele><time>2014-6-2T1:35:26Z</time></trkpt>
<trkpt lat="43.11852182" lon="0.27603711"><ele></ele><time>2014-6-2T1:35:29Z</time></trkpt>
<trkpt lat="43.11854479" lon="0.27608019"><ele></ele><time>2014-6-2T1:35:32Z</time></trkpt>
<trkpt lat="43.11854437" lon="0.27607801"><ele></ele><time>2014-6-2T1:35:35Z</time></trkpt>
<trkpt lat="43.11862148" lon="0.27607919"><ele></ele><time>2014-6-2T1:35:38Z</time></trkpt>
<trkpt lat="43.11871226" lon="0.27613224"><ele></ele><time>2014-6-2T1:35:41Z</time></trkpt>
<trkpt lat="43.11886582" lon="0.27606117"><ele></ele><time>2014-6-2T1:35:44Z</time></trkpt>
<trkpt lat="43.11909682" lon="0.27614373"><ele></ele><time>2014-6-2T1:35:47Z</time></trkpt>
<trkpt lat="43.11950024" lon="0.27619578"><ele></ele><time>2014-6-2T1:35:50Z</time></trkpt>
<trkpt lat="43.11962974" lon="0.27619695"><ele></ele><time>2014-6-2T1:35:53Z</time></trkpt>
<trkpt lat="43.11987927" lon="0.27614473"><ele></ele><time>2014-6-2T1:35:56Z</time></trkpt>
<trkpt lat="43.12014582" lon="0.27566655"><ele></ele><time>2014-6-2T1:35:59Z</time></trkpt>
<trkpt lat="43.12028328" lon="0.27543663"><ele></ele><time>2014-6-2T1:36:2Z</time></trkpt>
<trkpt lat="43.12028931" lon="0.27541274"><ele></ele><time>2014-6-2T1:36:5Z</time></trkpt>
<trkpt lat="43.12028630" lon="0.27537100"><ele></ele><time>2014-6-2T1:36:8Z</time></trkpt>
<trkpt lat="43.12031203" lon="0.27535625"><ele></ele><time>2014-6-2T1:36:11Z</time></trkpt>
<trkpt lat="43.12002185" lon="0.27544376"><ele></ele><time>2014-6-2T1:36:14Z</time></trkpt>
<trkpt lat="43.11983418" lon="0.27550201"><ele></ele><time>2014-6-2T1:36:17Z</time></trkpt>
<trkpt lat="43.11899205" lon="0.27495844"><ele></ele><time>2014-6-2T1:36:20Z</time></trkpt>
<trkpt lat="43.11891896" lon="0.27431765"><ele></ele><time>2014-6-2T1:36:23Z</time></trkpt>
<trkpt lat="43.11891435" lon="0.27402855"><ele></ele><time>2014-6-2T1:36:26Z</time></trkpt>
<trkpt lat="43.11885794" lon="0.27352229"><ele></ele><time>2014-6-2T1:36:29Z</time></trkpt>
<trkpt lat="43.11873154" lon="0.27330687"><ele></ele><time>2014-6-2T1:36:32Z</time></trkpt>
<trkpt lat="43.11836718" lon="0.27294151"><ele></ele><time>2014-6-2T1:36:35Z</time></trkpt>
<trkpt lat="43.11830984" lon="0.27284520"><ele></ele><time>2014-6-2T1:36:38Z</time></trkpt>
<trkpt lat="43.11838620" lon="0.27181640"><ele></ele><time>2014-6-2T1:36:41Z</time></trkpt>
<trkpt lat="43.11846147" lon="0.27151750"><ele></ele><time>2014-6-2T1:36:44Z</time></trkpt>
<trkpt lat="43.11860086" lon="0.27051176"><ele></ele><time>2014-6-2T1:36:47Z</time></trkpt>
<trkpt lat="43.11828696" lon="0.27035544"><ele></ele><time>2014-6-2T1:36:50Z</time></trkpt>
<trkpt lat="43.11791397" lon="0.27027321"><ele></ele><time>2014-6-2T1:36:53Z</time></trkpt>
<trkpt lat="43.11779377" lon="0.27016927"><ele></ele><time>2014-6-2T1:36:56Z</time></trkpt>
<trkpt lat="43.11778505" lon="0.27026843"><ele></ele><time>2014-6-2T1:36:59Z</time></trkpt>
<trkpt lat="43.11777676" lon="0.27026525"><ele></ele><time>2014-6-2T1:37:2Z</time></trkpt>
<trkpt lat="43.11774851" lon="0.26998462"><ele></ele><time>2014-6-2T1:37:5Z</time></trkpt>
<trkpt lat="43.11755195" lon="0.26936369"><ele></ele><time>2014-6-2T1:37:8Z</time></trkpt>
<trkpt lat="43.11755547" lon="0.26881811"><ele></ele><time>2014-6-2T1:37:11Z</time></trkpt>
<trkpt lat="43.11771498" lon="0.26842148"><ele></ele><time>2014-6-2T1:37:14Z</time></trkpt>
<trkpt lat="43.11728625" lon="0.26816005"><ele></ele><time>2014-6-2T1:37:17Z</time></trkpt>
<trkpt lat="43.11725180" lon="0.26813289"><ele></ele><time>2014-6-2T1:37:20Z</time></trkpt>
<trkpt lat="43.11712188" lon="0.26787397"><ele></ele><time>2014-6-2T1:37:23Z</time></trkpt>
<trkpt lat="43.11710712" lon="0.26727702"><ele></ele><time>2014-6-2T1:37:26Z</time></trkpt>
<trkpt lat="43.11700294" lon="0.26638350"><ele></ele><time>2014-6-2T1:37:29Z</time></trkpt>
<trkpt lat="43.11709941" lon="0.26594957"><ele></ele><time>2014-6-2T1:37:32Z</time></trkpt>
<trkpt lat="43.11717426" lon="0.26570155"><ele></ele><time>2014-6-2T1:37:35Z</time></trkpt>
<trkpt lat="43.11723621" lon="0.26562444"><ele></ele><time>2014-6-2T1:37:38Z</time></trkpt>
<trkpt lat="43.11732187" lon="0.26551765"><ele></ele><time>2014-6-2T1:37:41Z</time></trkpt>
<trkpt lat="43.11685617" lon="0.26406616"><ele></ele><time>2014-6-2T1:37:44Z</time></trkpt>
<trkpt lat="43.11918290" lon="0.25932569"><ele></ele><time>2014-6-2T1:37:47Z</time></trkpt>
<trkpt lat="43.11894787" lon="0.25915948"><ele></ele><time>2014-6-2T1:37:50Z</time></trkpt>
<trkpt lat="43.11862232" lon="0.25918814"><ele></ele><time>2014-6-2T1:37:53Z</time></trkpt>
<trkpt lat="43.11778723" lon="0.25947866"><ele></ele><time>2014-6-2T1:37:56Z</time></trkpt>
<trkpt lat="43.11723378" lon="0.25948788"><ele></ele><time>2014-6-2T1:37:59Z</time></trkpt>
<trkpt lat="43.11727694" lon="0.25950674"><ele></ele><time>2014-6-2T1:38:2Z</time></trkpt>
<trkpt lat="43.11732958" lon="0.25939920"><ele></ele><time>2014-6-2T1:38:5Z</time></trkpt>
<trkpt lat="43.11725171" lon="0.25937648"><ele></ele><time>2014-6-2T1:38:8Z</time></trkpt>
<trkpt lat="43.11725054" lon="0.25935553"><ele></ele><time>2014-6-2T1:38:11Z</time></trkpt>
<trkpt lat="43.11727108" lon="0.25943608"><ele></ele><time>2014-6-2T1:38:14Z</time></trkpt>
<trkpt lat="43.11724182" lon="0.25938311"><ele></ele><time>2014-6-2T1:38:17Z</time></trkpt>
<trkpt lat="43.11718935" lon="0.25945385"><ele></ele><time>2014-6-2T1:38:20Z</time></trkpt>
<trkpt lat="43.11711919" lon="0.25947656"><ele></ele><time>2014-6-2T1:38:23Z</time></trkpt>
<trkpt lat="43.11678736" lon="0.25962425"><ele></ele><time>2014-6-2T1:38:26Z</time></trkpt>
<trkpt lat="43.11643708" lon="0.25979944"><ele></ele><time>2014-6-2T1:38:29Z</time></trkpt>
<trkpt lat="43.11598001" lon="0.26010890"><ele></ele><time>2014-6-2T1:38:32Z</time></trkpt>
<trkpt lat="43.11529160" lon="0.26056596"><ele></ele><time>2014-6-2T1:38:35Z</time></trkpt>
<trkpt lat="43.11464754" lon="0.26099092"><ele></ele><time>2014-6-2T1:38:38Z</time></trkpt>
<trkpt lat="43.11391144" lon="0.26127272"><ele></ele><time>2014-6-2T1:38:41Z</time></trkpt>
<trkpt lat="43.11327341" lon="0.26142913"><ele></ele><time>2014-6-2T1:38:44Z</time></trkpt>
<trkpt lat="43.11270176" lon="0.26160976"><ele></ele><time>2014-6-2T1:38:47Z</time></trkpt>
<trkpt lat="43.11236179" lon="0.26182953"><ele></ele><time>2014-6-2T1:38:50Z</time></trkpt>
<trkpt lat="43.11234922" lon="0.26183188"><ele></ele><time>2014-6-2T1:38:53Z</time></trkpt>
<trkpt lat="43.11234076" lon="0.26181201"><ele></ele><time>2014-6-2T1:38:56Z</time></trkpt>
<trkpt lat="43.11235635" lon="0.26182174"><ele></ele><time>2014-6-2T1:38:59Z</time></trkpt>
<trkpt lat="43.11235576" lon="0.26183012"><ele></ele><time>2014-6-2T1:39:2Z</time></trkpt>
<trkpt lat="43.11236607" lon="0.26183280"><ele></ele><time>2014-6-2T1:39:5Z</time></trkpt>
<trkpt lat="43.11236557" lon="0.26184211"><ele></ele><time>2014-6-2T1:39:8Z</time></trkpt>
<trkpt lat="43.11234830" lon="0.26184672"><ele></ele><time>2014-6-2T1:39:11Z</time></trkpt>
<trkpt lat="43.11233405" lon="0.26185946"><ele></ele><time>2014-6-2T1:39:14Z</time></trkpt>
<trkpt lat="43.11231863" lon="0.26187949"><ele></ele><time>2014-6-2T1:39:17Z</time></trkpt>
<trkpt lat="43.11212886" lon="0.26201821"><ele></ele><time>2014-6-2T1:39:20Z</time></trkpt>
<trkpt lat="43.11178923" lon="0.26228786"><ele></ele><time>2014-6-2T1:39:23Z</time></trkpt>
<trkpt lat="43.11136611" lon="0.26264417"><ele></ele><time>2014-6-2T1:39:26Z</time></trkpt>
<trkpt lat="43.11098213" lon="0.26293435"><ele></ele><time>2014-6-2T1:39:29Z</time></trkpt>
<trkpt lat="43.11044142" lon="0.26320199"><ele></ele><time>2014-6-2T1:39:32Z</time></trkpt>
<trkpt lat="43.10985284" lon="0.26348035"><ele></ele><time>2014-6-2T1:39:35Z</time></trkpt>
<trkpt lat="43.10934196" lon="0.26371085"><ele></ele><time>2014-6-2T1:39:38Z</time></trkpt>
<trkpt lat="43.10875984" lon="0.26398502"><ele></ele><time>2014-6-2T1:39:41Z</time></trkpt>
<trkpt lat="43.10809264" lon="0.26405484"><ele></ele><time>2014-6-2T1:39:44Z</time></trkpt>
<trkpt lat="43.10740532" lon="0.26417873"><ele></ele><time>2014-6-2T1:39:47Z</time></trkpt>
<trkpt lat="43.10657803" lon="0.26460176"><ele></ele><time>2014-6-2T1:39:50Z</time></trkpt>
<trkpt lat="43.10625633" lon="0.26515832"><ele></ele><time>2014-6-2T1:39:53Z</time></trkpt>
<trkpt lat="43.10594126" lon="0.26649079"><ele></ele><time>2014-6-2T1:39:56Z</time></trkpt>
<trkpt lat="43.10558871" lon="0.26796886"><ele></ele><time>2014-6-2T1:39:59Z</time></trkpt>
<trkpt lat="43.10547120" lon="0.26848057"><ele></ele><time>2014-6-2T1:40:2Z</time></trkpt>
<trkpt lat="43.10560883" lon="0.26851695"><ele></ele><time>2014-6-2T1:40:5Z</time></trkpt>
<trkpt lat="43.10586490" lon="0.26851410"><ele></ele><time>2014-6-2T1:40:8Z</time></trkpt>
<trkpt lat="43.10595953" lon="0.26854830"><ele></ele><time>2014-6-2T1:40:11Z</time></trkpt>
<trkpt lat="43.10620302" lon="0.26875064"><ele></ele><time>2014-6-2T1:40:14Z</time></trkpt>
<trkpt lat="43.10629372" lon="0.26888282"><ele></ele><time>2014-6-2T1:40:17Z</time></trkpt>
<trkpt lat="43.10649362" lon="0.26951523"><ele></ele><time>2014-6-2T1:40:20Z</time></trkpt>
<trkpt lat="43.10672832" lon="0.27037472"><ele></ele><time>2014-6-2T1:40:23Z</time></trkpt>
<trkpt lat="43.10707541" lon="0.27142304"><ele></ele><time>2014-6-2T1:40:26Z</time></trkpt>
<trkpt lat="43.10721212" lon="0.27215268"><ele></ele><time>2014-6-2T1:40:29Z</time></trkpt>
<trkpt lat="43.10714381" lon="0.27309741"><ele></ele><time>2014-6-2T1:40:32Z</time></trkpt>
<trkpt lat="43.10705010" lon="0.27396158"><ele></ele><time>2014-6-2T1:40:35Z</time></trkpt>
<trkpt lat="43.10678909" lon="0.27466902"><ele></ele><time>2014-6-2T1:40:38Z</time></trkpt>
<trkpt lat="43.10652891" lon="0.27497646"><ele></ele><time>2014-6-2T1:40:41Z</time></trkpt>
<trkpt lat="43.10628676" lon="0.27485811"><ele></ele><time>2014-6-2T1:40:44Z</time></trkpt>
<trkpt lat="43.10618073" lon="0.27478795"><ele></ele><time>2014-6-2T1:40:47Z</time></trkpt>
<trkpt lat="43.10613295" lon="0.27476088"><ele></ele><time>2014-6-2T1:40:50Z</time></trkpt>
<trkpt lat="43.10593514" lon="0.27467983"><ele></ele><time>2014-6-2T1:40:53Z</time></trkpt>
<trkpt lat="43.10573112" lon="0.27460942"><ele></ele><time>2014-6-2T1:40:56Z</time></trkpt>
<trkpt lat="43.10554555" lon="0.27451437"><ele></ele><time>2014-6-2T1:40:59Z</time></trkpt>
<trkpt lat="43.10529543" lon="0.27432603"><ele></ele><time>2014-6-2T1:41:2Z</time></trkpt>
<trkpt lat="43.10510600" lon="0.27413526"><ele></ele><time>2014-6-2T1:41:5Z</time></trkpt>
<trkpt lat="43.10499142" lon="0.27393342"><ele></ele><time>2014-6-2T1:41:8Z</time></trkpt>
<trkpt lat="43.10489109" lon="0.27374106"><ele></ele><time>2014-6-2T1:41:11Z</time></trkpt>
<trkpt lat="43.10476092" lon="0.27359144"><ele></ele><time>2014-6-2T1:41:14Z</time></trkpt>
<trkpt lat="43.10474013" lon="0.27356319"><ele></ele><time>2014-6-2T1:41:17Z</time></trkpt>
<trkpt lat="43.10473736" lon="0.27349077"><ele></ele><time>2014-6-2T1:41:20Z</time></trkpt>
<trkpt lat="43.10480207" lon="0.27334669"><ele></ele><time>2014-6-2T1:41:23Z</time></trkpt>
<trkpt lat="43.10486376" lon="0.27322875"><ele></ele><time>2014-6-2T1:41:26Z</time></trkpt>
<trkpt lat="43.10483661" lon="0.27298920"><ele></ele><time>2014-6-2T1:41:29Z</time></trkpt>
<trkpt lat="43.10466134" lon="0.27264588"><ele></ele><time>2014-6-2T1:41:32Z</time></trkpt>
<trkpt lat="43.10457023" lon="0.27263314"><ele></ele><time>2014-6-2T1:41:35Z</time></trkpt>
<trkpt lat="43.10431827" lon="0.27253834"><ele></ele><time>2014-6-2T1:41:38Z</time></trkpt>
<trkpt lat="43.10417779" lon="0.27210793"><ele></ele><time>2014-6-2T1:41:41Z</time></trkpt>
<trkpt lat="43.10402884" lon="0.27175882"><ele></ele><time>2014-6-2T1:41:44Z</time></trkpt>
<trkpt lat="43.10390311" lon="0.27150476"><ele></ele><time>2014-6-2T1:41:47Z</time></trkpt>
<trkpt lat="43.10373883" lon="0.27115675"><ele></ele><time>2014-6-2T1:41:50Z</time></trkpt>
<trkpt lat="43.10343792" lon="0.27056415"><ele></ele><time>2014-6-2T1:41:53Z</time></trkpt>
<trkpt lat="43.10340137" lon="0.27012653"><ele></ele><time>2014-6-2T1:41:56Z</time></trkpt>
<trkpt lat="43.10333163" lon="0.26985646"><ele></ele><time>2014-6-2T1:41:59Z</time></trkpt>
<trkpt lat="43.10328386" lon="0.26982905"><ele></ele><time>2014-6-2T1:42:2Z</time></trkpt>
<trkpt lat="43.10329559" lon="0.26982914"><ele></ele><time>2014-6-2T1:42:5Z</time></trkpt>
<trkpt lat="43.10330582" lon="0.26979192"><ele></ele><time>2014-6-2T1:42:8Z</time></trkpt>
<trkpt lat="43.10307506" lon="0.26984012"><ele></ele><time>2014-6-2T1:42:11Z</time></trkpt>
<trkpt lat="43.10299426" lon="0.26984406"><ele></ele><time>2014-6-2T1:42:14Z</time></trkpt>
<trkpt lat="43.10283316" lon="0.26975638"><ele></ele><time>2014-6-2T1:42:17Z</time></trkpt>
<trkpt lat="43.10236554" lon="0.26903747"><ele></ele><time>2014-6-2T1:42:20Z</time></trkpt>
<trkpt lat="43.10187687" lon="0.26814907"><ele></ele><time>2014-6-2T1:42:23Z</time></trkpt>
<trkpt lat="43.10138913" lon="0.26712748"><ele></ele><time>2014-6-2T1:42:26Z</time></trkpt>
<trkpt lat="43.10102309" lon="0.26608595"><ele></ele><time>2014-6-2T1:42:29Z</time></trkpt>
<trkpt lat="43.10069678" lon="0.26492170"><ele></ele><time>2014-6-2T1:42:32Z</time></trkpt>
<trkpt lat="43.10062411" lon="0.26475666"><ele></ele><time>2014-6-2T1:42:35Z</time></trkpt>
<trkpt lat="43.10029957" lon="0.26436808"><ele></ele><time>2014-6-2T1:42:38Z</time></trkpt>
<trkpt lat="43.09953824" lon="0.26396683"><ele></ele><time>2014-6-2T1:42:41Z</time></trkpt>
<trkpt lat="43.09856049" lon="0.26343693"><ele></ele><time>2014-6-2T1:42:44Z</time></trkpt>
<trkpt lat="43.09768165" lon="0.26278993"><ele></ele><time>2014-6-2T1:42:47Z</time></trkpt>
<trkpt lat="43.09675997" lon="0.26186675"><ele></ele><time>2014-6-2T1:42:50Z</time></trkpt>
<trkpt lat="43.09577744" lon="0.26135118"><ele></ele><time>2014-6-2T1:42:53Z</time></trkpt>
<trkpt lat="43.09515911" lon="0.26103560"><ele></ele><time>2014-6-2T1:42:56Z</time></trkpt>
<trkpt lat="43.09483758" lon="0.26108522"><ele></ele><time>2014-6-2T1:42:59Z</time></trkpt>
<trkpt lat="43.09410081" lon="0.26155050"><ele></ele><time>2014-6-2T1:43:2Z</time></trkpt>
<trkpt lat="43.09379613" lon="0.26168771"><ele></ele><time>2014-6-2T1:43:5Z</time></trkpt>
<trkpt lat="43.09343051" lon="0.26168386"><ele></ele><time>2014-6-2T1:43:8Z</time></trkpt>
<trkpt lat="43.09305643" lon="0.26173046"><ele></ele><time>2014-6-2T1:43:11Z</time></trkpt>
<trkpt lat="43.09267622" lon="0.26186910"><ele></ele><time>2014-6-2T1:43:14Z</time></trkpt>
<trkpt lat="43.09226534" lon="0.26197622"><ele></ele><time>2014-6-2T1:43:17Z</time></trkpt>
<trkpt lat="43.09176863" lon="0.26184403"><ele></ele><time>2014-6-2T1:43:20Z</time></trkpt>
<trkpt lat="43.09153453" lon="0.26210924"><ele></ele><time>2014-6-2T1:43:23Z</time></trkpt>
<trkpt lat="43.09152757" lon="0.26215802"><ele></ele><time>2014-6-2T1:43:26Z</time></trkpt>
<trkpt lat="43.09148868" lon="0.26314013"><ele></ele><time>2014-6-2T1:43:29Z</time></trkpt>
<trkpt lat="43.09143302" lon="0.26433430"><ele></ele><time>2014-6-2T1:43:32Z</time></trkpt>
<trkpt lat="43.09125700" lon="0.26513703"><ele></ele><time>2014-6-2T1:43:35Z</time></trkpt>
<trkpt lat="43.09111183" lon="0.26567909"><ele></ele><time>2014-6-2T1:43:38Z</time></trkpt>
<trkpt lat="43.09075023" lon="0.26667075"><ele></ele><time>2014-6-2T1:43:41Z</time></trkpt>
<trkpt lat="43.09073841" lon="0.26673295"><ele></ele><time>2014-6-2T1:43:44Z</time></trkpt>
<trkpt lat="43.09076817" lon="0.26781262"><ele></ele><time>2014-6-2T1:43:47Z</time></trkpt>
<trkpt lat="43.09076984" lon="0.26875818"><ele></ele><time>2014-6-2T1:43:50Z</time></trkpt>
<trkpt lat="43.09058310" lon="0.26986677"><ele></ele><time>2014-6-2T1:43:53Z</time></trkpt>
<trkpt lat="43.09029350" lon="0.27096606"><ele></ele><time>2014-6-2T1:43:56Z</time></trkpt>
<trkpt lat="43.09018956" lon="0.27160216"><ele></ele><time>2014-6-2T1:43:59Z</time></trkpt>
<trkpt lat="43.09006895" lon="0.27214296"><ele></ele><time>2014-6-2T1:44:2Z</time></trkpt>
<trkpt lat="43.08983023" lon="0.27251964"><ele></ele><time>2014-6-2T1:44:5Z</time></trkpt>
<trkpt lat="43.08950460" lon="0.27300831"><ele></ele><time>2014-6-2T1:44:8Z</time></trkpt>
<trkpt lat="43.08960233" lon="0.27327603"><ele></ele><time>2014-6-2T1:44:11Z</time></trkpt>
<trkpt lat="43.08957425" lon="0.27366042"><ele></ele><time>2014-6-2T1:44:14Z</time></trkpt>
<trkpt lat="43.08928759" lon="0.27398237"><ele></ele><time>2014-6-2T1:44:17Z</time></trkpt>
<trkpt lat="43.08891736" lon="0.27439082"><ele></ele><time>2014-6-2T1:44:20Z</time></trkpt>
<trkpt lat="43.08865987" lon="0.27480111"><ele></ele><time>2014-6-2T1:44:23Z</time></trkpt>
<trkpt lat="43.08843741" lon="0.27527343"><ele></ele><time>2014-6-2T1:44:26Z</time></trkpt>
<trkpt lat="43.08819207" lon="0.27568624"><ele></ele><time>2014-6-2T1:44:29Z</time></trkpt>
<trkpt lat="43.08807833" lon="0.27584357"><ele></ele><time>2014-6-2T1:44:32Z</time></trkpt>
<trkpt lat="43.08811513" lon="0.27594474"><ele></ele><time>2014-6-2T1:44:35Z</time></trkpt>
<trkpt lat="43.08825938" lon="0.27620768"><ele></ele><time>2014-6-2T1:44:38Z</time></trkpt>
<trkpt lat="43.08833348" lon="0.27672183"><ele></ele><time>2014-6-2T1:44:41Z</time></trkpt>
<trkpt lat="43.08827514" lon="0.27725575"><ele></ele><time>2014-6-2T1:44:44Z</time></trkpt>
<trkpt lat="43.08802737" lon="0.27796880"><ele></ele><time>2014-6-2T1:44:47Z</time></trkpt>
<trkpt lat="43.08797800" lon="0.27803695"><ele></ele><time>2014-6-2T1:44:50Z</time></trkpt>
<trkpt lat="43.08795277" lon="0.27788742"><ele></ele><time>2014-6-2T1:44:53Z</time></trkpt>
<trkpt lat="43.08785127" lon="0.27777770"><ele></ele><time>2014-6-2T1:44:56Z</time></trkpt>
<trkpt lat="43.08665835" lon="0.27859527"><ele></ele><time>2014-6-2T1:44:59Z</time></trkpt>
<trkpt lat="43.08651737" lon="0.27904236"><ele></ele><time>2014-6-2T1:45:2Z</time></trkpt>
<trkpt lat="43.08645333" lon="0.27917437"><ele></ele><time>2014-6-2T1:45:5Z</time></trkpt>
<trkpt lat="43.08608185" lon="0.27975365"><ele></ele><time>2014-6-2T1:45:8Z</time></trkpt>
<trkpt lat="43.08592184" lon="0.28003947"><ele></ele><time>2014-6-2T1:45:11Z</time></trkpt>
<trkpt lat="43.08599417" lon="0.28029587"><ele></ele><time>2014-6-2T1:45:14Z</time></trkpt>
<trkpt lat="43.08604798" lon="0.28046041"><ele></ele><time>2014-6-2T1:45:17Z</time></trkpt>
<trkpt lat="43.08604513" lon="0.28045454"><ele></ele><time>2014-6-2T1:45:20Z</time></trkpt>
<trkpt lat="43.08605175" lon="0.28043040"><ele></ele><time>2014-6-2T1:45:23Z</time></trkpt>
<trkpt lat="43.08603449" lon="0.28049528"><ele></ele><time>2014-6-2T1:45:26Z</time></trkpt>
<trkpt lat="43.08603357" lon="0.28047063"><ele></ele><time>2014-6-2T1:45:29Z</time></trkpt>
</trkseg></trk></gpx>